sensor_id;sensor_type;location;lat;lon;timestamp;pressure;altitude;pressure_sealevel;temperature;humidity
19600;BME280;9947;57.722;12.012;2024-03-17T00:02:18;99795.22;;;-0.50;100.00
19600;BME280;9947;57.722;12.012;2024-03-17T00:04:47;99823.63;;;-0.52;100.00
19600;BME280;9947;57.722;12.012;2024-03-17T00:07:16;99820.09;;;-0.52;100.00
19600;BME280;9947;57.722;12.012;2024-03-17T00:09:45;99816.44;;;-0.50;100.00
19600;BME280;9947;57.722;12.012;2024-03-17T00:12:11;99824.59;;;-0.54;100.00
19600;BME280;9947;57.722;12.012;2024-03-17T00:14:39;99826.41;;;-0.55;100.00
19600;BME280;9947;57.722;12.012;2024-03-17T00:17:08;99837.88;;;-0.54;100.00
19600;BME280;9947;57.722;12.012;2024-03-17T00:19:35;99843.19;;;-0.54;100.00
19600;BME280;9947;57.722;12.012;2024-03-17T00:24:27;99859.97;;;-0.54;100.00
19600;BME280;9947;57.722;12.012;2024-03-17T00:29:27;99870.66;;;-0.55;100.00
19600;BME280;9947;57.722;12.012;2024-03-17T00:31:56;99859.00;;;-0.51;100.00
19600;BME280;9947;57.722;12.012;2024-03-17T00:34:22;99873.25;;;-0.54;100.00
19600;BME280;9947;57.722;12.012;2024-03-17T00:36:49;99886.59;;;-0.55;100.00
19600;BME280;9947;57.722;12.012;2024-03-17T00:39:15;99880.28;;;-0.53;100.00
19600;BME280;9947;57.722;12.012;2024-03-17T00:41:42;99894.41;;;-0.52;100.00
19600;BME280;9947;57.722;12.012;2024-03-17T00:44:09;99897.13;;;-0.54;100.00
19600;BME280;9947;57.722;12.012;2024-03-17T00:46:34;99920.09;;;-0.53;100.00
19600;BME280;9947;57.722;12.012;2024-03-17T00:51:28;99921.09;;;-0.55;100.00
19600;BME280;9947;57.722;12.012;2024-03-17T00:53:55;99924.69;;;-0.56;100.00
19600;BME280;9947;57.722;12.012;2024-03-17T00:56:22;99927.41;;;-0.58;100.00
19600;BME280;9947;57.722;12.012;2024-03-17T00:58:50;99923.91;;;-0.58;100.00
19600;BME280;9947;57.722;12.012;2024-03-17T01:01:19;99935.44;;;-0.59;100.00
19600;BME280;9947;57.722;12.012;2024-03-17T01:03:46;99928.47;;;-0.62;100.00
19600;BME280;9947;57.722;12.012;2024-03-17T01:06:13;99933.78;;;-0.62;100.00
19600;BME280;9947;57.722;12.012;2024-03-17T01:08:43;99939.09;;;-0.62;100.00
19600;BME280;9947;57.722;12.012;2024-03-17T01:11:15;99933.66;;;-0.59;100.00
19600;BME280;9947;57.722;12.012;2024-03-17T01:13:45;99939.97;;;-0.62;100.00
19600;BME280;9947;57.722;12.012;2024-03-17T01:16:11;99942.53;;;-0.60;100.00
19600;BME280;9947;57.722;12.012;2024-03-17T01:18:38;99946.94;;;-0.59;100.00
19600;BME280;9947;57.722;12.012;2024-03-17T01:21:07;99964.84;;;-0.64;100.00
19600;BME280;9947;57.722;12.012;2024-03-17T01:23:33;99965.72;;;-0.64;100.00
19600;BME280;9947;57.722;12.012;2024-03-17T01:26:02;99966.63;;;-0.65;100.00
19600;BME280;9947;57.722;12.012;2024-03-17T01:28:28;99971.94;;;-0.65;100.00
19600;BME280;9947;57.722;12.012;2024-03-17T01:30:55;99981.69;;;-0.65;100.00
19600;BME280;9947;57.722;12.012;2024-03-17T01:33:22;99958.53;;;-0.62;100.00
19600;BME280;9947;57.722;12.012;2024-03-17T01:35:51;99978.06;;;-0.63;100.00
19600;BME280;9947;57.722;12.012;2024-03-17T01:38:17;99969.28;;;-0.65;100.00
19600;BME280;9947;57.722;12.012;2024-03-17T01:40:46;99966.72;;;-0.66;100.00
19600;BME280;9947;57.722;12.012;2024-03-17T01:43:14;99980.38;;;-0.75;100.00
19600;BME280;9947;57.722;12.012;2024-03-17T01:45:41;99990.56;;;-0.86;100.00
19600;BME280;9947;57.722;12.012;2024-03-17T01:48:11;99997.06;;;-0.94;100.00
19600;BME280;9947;57.722;12.012;2024-03-17T01:50:40;100002.50;;;-0.97;100.00
19600;BME280;9947;57.722;12.012;2024-03-17T01:53:09;100001.84;;;-1.02;100.00
19600;BME280;9947;57.722;12.012;2024-03-17T01:55:40;100007.56;;;-1.12;100.00
19600;BME280;9947;57.722;12.012;2024-03-17T01:58:07;100009.34;;;-1.13;100.00
19600;BME280;9947;57.722;12.012;2024-03-17T02:00:38;100009.72;;;-1.22;100.00
19600;BME280;9947;57.722;12.012;2024-03-17T02:05:29;100037.63;;;-1.35;100.00
19600;BME280;9947;57.722;12.012;2024-03-17T02:07:56;100043.06;;;-1.38;100.00
19600;BME280;9947;57.722;12.012;2024-03-17T02:10:22;100039.47;;;-1.37;100.00
19600;BME280;9947;57.722;12.012;2024-03-17T02:12:53;100048.53;;;-1.43;100.00
19600;BME280;9947;57.722;12.012;2024-03-17T02:15:19;100056.81;;;-1.50;100.00
19600;BME280;9947;57.722;12.012;2024-03-17T02:17:47;100070.91;;;-1.50;100.00
19600;BME280;9947;57.722;12.012;2024-03-17T02:20:14;100080.53;;;-1.47;100.00
19600;BME280;9947;57.722;12.012;2024-03-17T02:22:44;100084.75;;;-1.42;100.00
19600;BME280;9947;57.722;12.012;2024-03-17T02:25:11;100086.72;;;-1.47;100.00
19600;BME280;9947;57.722;12.012;2024-03-17T02:27:38;100092.19;;;-1.51;100.00
19600;BME280;9947;57.722;12.012;2024-03-17T02:30:05;100105.63;;;-1.56;100.00
19600;BME280;9947;57.722;12.012;2024-03-17T02:32:34;100107.50;;;-1.60;100.00
19600;BME280;9947;57.722;12.012;2024-03-17T02:35:01;100115.66;;;-1.66;100.00
19600;BME280;9947;57.722;12.012;2024-03-17T02:37:30;100129.72;;;-1.64;100.00
19600;BME280;9947;57.722;12.012;2024-03-17T02:39:58;100137.03;;;-1.70;100.00
19600;BME280;9947;57.722;12.012;2024-03-17T02:42:25;100143.50;;;-1.77;100.00
19600;BME280;9947;57.722;12.012;2024-03-17T02:44:54;100151.50;;;-1.79;100.00
19600;BME280;9947;57.722;12.012;2024-03-17T02:47:21;100146.16;;;-1.77;100.00
19600;BME280;9947;57.722;12.012;2024-03-17T02:49:47;100144.19;;;-1.72;100.00
19600;BME280;9947;57.722;12.012;2024-03-17T02:52:15;100144.41;;;-1.78;100.00
19600;BME280;9947;57.722;12.012;2024-03-17T02:54:42;100152.50;;;-1.83;100.00
19600;BME280;9947;57.722;12.012;2024-03-17T02:57:13;100154.03;;;-1.76;100.00
19600;BME280;9947;57.722;12.012;2024-03-17T02:59:40;100159.56;;;-1.82;100.00
19600;BME280;9947;57.722;12.012;2024-03-17T03:02:08;100162.91;;;-1.77;100.00
19600;BME280;9947;57.722;12.012;2024-03-17T03:04:35;100164.56;;;-1.74;100.00
19600;BME280;9947;57.722;12.012;2024-03-17T03:09:27;100170.00;;;-1.77;100.00
19600;BME280;9947;57.722;12.012;2024-03-17T03:14:31;100176.41;;;-1.84;100.00
19600;BME280;9947;57.722;12.012;2024-03-17T03:19:23;100189.00;;;-1.91;100.00
19600;BME280;9947;57.722;12.012;2024-03-17T03:21:50;100191.75;;;-1.94;100.00
19600;BME280;9947;57.722;12.012;2024-03-17T03:24:18;100204.25;;;-1.98;100.00
19600;BME280;9947;57.722;12.012;2024-03-17T03:26:45;100207.88;;;-2.00;100.00
19600;BME280;9947;57.722;12.012;2024-03-17T03:29:12;100211.38;;;-2.00;100.00
19600;BME280;9947;57.722;12.012;2024-03-17T03:31:41;100223.81;;;-2.02;100.00
19600;BME280;9947;57.722;12.012;2024-03-17T03:36:37;100222.31;;;-2.10;100.00
19600;BME280;9947;57.722;12.012;2024-03-17T03:41:29;100227.97;;;-2.21;100.00
19600;BME280;9947;57.722;12.012;2024-03-17T03:43:56;100234.84;;;-2.15;100.00
19600;BME280;9947;57.722;12.012;2024-03-17T03:46:24;100241.75;;;-2.11;100.00
19600;BME280;9947;57.722;12.012;2024-03-17T03:48:52;100236.63;;;-2.16;100.00
19600;BME280;9947;57.722;12.012;2024-03-17T03:51:20;100240.19;;;-2.17;100.00
19600;BME280;9947;57.722;12.012;2024-03-17T03:53:47;100253.31;;;-2.14;100.00
19600;BME280;9947;57.722;12.012;2024-03-17T03:56:16;100253.78;;;-2.28;100.00
19600;BME280;9947;57.722;12.012;2024-03-17T03:58:44;100254.34;;;-2.18;100.00
19600;BME280;9947;57.722;12.012;2024-03-17T04:01:11;100252.81;;;-2.25;100.00
19600;BME280;9947;57.722;12.012;2024-03-17T04:03:41;100263.66;;;-2.33;100.00
19600;BME280;9947;57.722;12.012;2024-03-17T04:06:10;100266.25;;;-2.31;100.00
19600;BME280;9947;57.722;12.012;2024-03-17T04:08:39;100273.59;;;-2.41;100.00
19600;BME280;9947;57.722;12.012;2024-03-17T04:13:35;100275.38;;;-2.41;100.00
19600;BME280;9947;57.722;12.012;2024-03-17T04:16:05;100273.69;;;-2.44;100.00
19600;BME280;9947;57.722;12.012;2024-03-17T04:18:32;100279.09;;;-2.47;100.00
19600;BME280;9947;57.722;12.012;2024-03-17T04:23:32;100293.59;;;-2.59;100.00
19600;BME280;9947;57.722;12.012;2024-03-17T04:28:24;100296.19;;;-2.57;100.00
19600;BME280;9947;57.722;12.012;2024-03-17T04:30:51;100312.78;;;-2.52;100.00
19600;BME280;9947;57.722;12.012;2024-03-17T04:33:22;100313.03;;;-2.61;100.00
19600;BME280;9947;57.722;12.012;2024-03-17T04:35:49;100319.03;;;-2.55;100.00
19600;BME280;9947;57.722;12.012;2024-03-17T04:38:16;100327.19;;;-2.62;100.00
19600;BME280;9947;57.722;12.012;2024-03-17T04:40:48;100329.03;;;-2.66;100.00
19600;BME280;9947;57.722;12.012;2024-03-17T04:43:16;100334.97;;;-2.56;100.00
19600;BME280;9947;57.722;12.012;2024-03-17T04:45:46;100339.19;;;-2.51;100.00
19600;BME280;9947;57.722;12.012;2024-03-17T04:48:16;100341.16;;;-2.57;100.00
19600;BME280;9947;57.722;12.012;2024-03-17T04:50:43;100358.94;;;-2.62;100.00
19600;BME280;9947;57.722;12.012;2024-03-17T04:53:10;100358.81;;;-2.58;100.00
19600;BME280;9947;57.722;12.012;2024-03-17T04:55:37;100368.75;;;-2.66;100.00
19600;BME280;9947;57.722;12.012;2024-03-17T04:58:07;100369.56;;;-2.64;100.00
19600;BME280;9947;57.722;12.012;2024-03-17T05:00:38;100374.91;;;-2.65;100.00
19600;BME280;9947;57.722;12.012;2024-03-17T05:03:06;100375.03;;;-2.70;100.00
19600;BME280;9947;57.722;12.012;2024-03-17T05:05:34;100390.88;;;-2.68;100.00
19600;BME280;9947;57.722;12.012;2024-03-17T05:10:28;100398.75;;;-2.67;100.00
19600;BME280;9947;57.722;12.012;2024-03-17T05:12:56;100400.25;;;-2.57;100.00
19600;BME280;9947;57.722;12.012;2024-03-17T05:15:30;100405.66;;;-2.61;100.00
19600;BME280;9947;57.722;12.012;2024-03-17T05:20:25;100421.69;;;-2.67;100.00
19600;BME280;9947;57.722;12.012;2024-03-17T05:22:53;100420.84;;;-2.68;100.00
19600;BME280;9947;57.722;12.012;2024-03-17T05:25:20;100427.91;;;-2.68;100.00
19600;BME280;9947;57.722;12.012;2024-03-17T05:27:49;100435.88;;;-2.70;100.00
19600;BME280;9947;57.722;12.012;2024-03-17T05:30:16;100434.88;;;-2.66;100.00
19600;BME280;9947;57.722;12.012;2024-03-17T05:32:45;100435.84;;;-2.68;100.00
19600;BME280;9947;57.722;12.012;2024-03-17T05:35:14;100445.50;;;-2.67;100.00
19600;BME280;9947;57.722;12.012;2024-03-17T05:37:45;100445.44;;;-2.64;100.00
19600;BME280;9947;57.722;12.012;2024-03-17T05:40:12;100455.09;;;-2.63;100.00
19600;BME280;9947;57.722;12.012;2024-03-17T05:42:41;100461.31;;;-2.64;100.00
19600;BME280;9947;57.722;12.012;2024-03-17T05:45:10;100463.91;;;-2.63;100.00
19600;BME280;9947;57.722;12.012;2024-03-17T05:47:37;100480.69;;;-2.64;100.00
19600;BME280;9947;57.722;12.012;2024-03-17T05:50:10;100470.88;;;-2.59;100.00
19600;BME280;9947;57.722;12.012;2024-03-17T05:52:42;100479.69;;;-2.58;100.00
19600;BME280;9947;57.722;12.012;2024-03-17T05:55:09;100482.34;;;-2.58;100.00
19600;BME280;9947;57.722;12.012;2024-03-17T05:57:37;100485.81;;;-2.56;100.00
19600;BME280;9947;57.722;12.012;2024-03-17T06:00:07;100485.72;;;-2.53;100.00
19600;BME280;9947;57.722;12.012;2024-03-17T06:02:34;100490.91;;;-2.50;100.00
19600;BME280;9947;57.722;12.012;2024-03-17T06:05:02;100490.00;;;-2.49;100.00
19600;BME280;9947;57.722;12.012;2024-03-17T06:07:31;100496.00;;;-2.42;100.00
19600;BME280;9947;57.722;12.012;2024-03-17T06:12:23;100492.16;;;-2.31;100.00
19600;BME280;9947;57.722;12.012;2024-03-17T06:14:50;100492.03;;;-2.26;100.00
19600;BME280;9947;57.722;12.012;2024-03-17T06:17:18;100498.91;;;-2.21;100.00
19600;BME280;9947;57.722;12.012;2024-03-17T06:19:45;100499.84;;;-2.22;100.00
19600;BME280;9947;57.722;12.012;2024-03-17T06:22:12;100509.38;;;-2.16;100.00
19600;BME280;9947;57.722;12.012;2024-03-17T06:24:40;100508.50;;;-2.17;100.00
19600;BME280;9947;57.722;12.012;2024-03-17T06:29:36;100530.53;;;-2.14;100.00
19600;BME280;9947;57.722;12.012;2024-03-17T06:32:05;100536.34;;;-2.02;100.00
19600;BME280;9947;57.722;12.012;2024-03-17T06:34:35;100549.50;;;-1.99;100.00
19600;BME280;9947;57.722;12.012;2024-03-17T06:39:28;100569.81;;;-1.99;100.00
19600;BME280;9947;57.722;12.012;2024-03-17T06:41:56;100581.44;;;-2.03;100.00
19600;BME280;9947;57.722;12.012;2024-03-17T06:44:27;100594.72;;;-2.05;100.00
19600;BME280;9947;57.722;12.012;2024-03-17T06:46:56;100600.97;;;-2.09;100.00
19600;BME280;9947;57.722;12.012;2024-03-17T06:49:24;100598.22;;;-2.04;100.00
19600;BME280;9947;57.722;12.012;2024-03-17T06:51:51;100604.41;;;-2.04;100.00
19600;BME280;9947;57.722;12.012;2024-03-17T06:54:33;100612.13;;;-1.96;100.00
19600;BME280;9947;57.722;12.012;2024-03-17T06:59:30;100618.06;;;-1.88;100.00
19600;BME280;9947;57.722;12.012;2024-03-17T07:04:25;100623.91;;;-1.75;100.00
19600;BME280;9947;57.722;12.012;2024-03-17T07:06:51;100655.81;;;-1.78;100.00
19600;BME280;9947;57.722;12.012;2024-03-17T07:09:18;100668.19;;;-1.79;100.00
19600;BME280;9947;57.722;12.012;2024-03-17T07:11:45;100679.56;;;-1.75;100.00
19600;BME280;9947;57.722;12.012;2024-03-17T07:14:14;100697.34;;;-1.79;100.00
19600;BME280;9947;57.722;12.012;2024-03-17T07:16:43;100691.94;;;-1.76;100.00
19600;BME280;9947;57.722;12.012;2024-03-17T07:19:10;100692.69;;;-1.71;100.00
19600;BME280;9947;57.722;12.012;2024-03-17T07:21:39;100688.78;;;-1.58;100.00
19600;BME280;9947;57.722;12.012;2024-03-17T07:24:09;100701.75;;;-1.47;100.00
19600;BME280;9947;57.722;12.012;2024-03-17T07:26:37;100733.59;;;-1.48;100.00
19600;BME280;9947;57.722;12.012;2024-03-17T07:29:07;100730.03;;;-1.47;100.00
19600;BME280;9947;57.722;12.012;2024-03-17T07:31:35;100739.44;;;-1.36;100.00
19600;BME280;9947;57.722;12.012;2024-03-17T07:34:05;100736.41;;;-1.22;100.00
19600;BME280;9947;57.722;12.012;2024-03-17T07:36:33;100741.44;;;-1.13;100.00
19600;BME280;9947;57.722;12.012;2024-03-17T07:41:25;100785.53;;;-1.09;100.00
19600;BME280;9947;57.722;12.012;2024-03-17T07:43:53;100801.34;;;-1.06;100.00
19600;BME280;9947;57.722;12.012;2024-03-17T07:46:20;100823.63;;;-1.11;100.00
19600;BME280;9947;57.722;12.012;2024-03-17T07:48:46;100808.38;;;-1.03;100.00
19600;BME280;9947;57.722;12.012;2024-03-17T07:51:16;100803.09;;;-1.05;100.00
19600;BME280;9947;57.722;12.012;2024-03-17T07:53:45;100825.81;;;-0.95;100.00
19600;BME280;9947;57.722;12.012;2024-03-17T07:56:15;100840.66;;;-0.87;100.00
19600;BME280;9947;57.722;12.012;2024-03-17T07:58:43;100849.53;;;-0.88;100.00
19600;BME280;9947;57.722;12.012;2024-03-17T08:01:13;100873.38;;;-0.87;100.00
19600;BME280;9947;57.722;12.012;2024-03-17T08:03:42;100906.03;;;-0.85;100.00
19600;BME280;9947;57.722;12.012;2024-03-17T08:06:11;100917.34;;;-0.78;100.00
19600;BME280;9947;57.722;12.012;2024-03-17T08:08:42;100917.81;;;-0.63;100.00
19600;BME280;9947;57.722;12.012;2024-03-17T08:11:10;100948.66;;;-0.58;100.00
19600;BME280;9947;57.722;12.012;2024-03-17T08:13:37;101001.00;;;-0.62;100.00
19600;BME280;9947;57.722;12.012;2024-03-17T08:16:06;101016.19;;;-0.67;100.00
19600;BME280;9947;57.722;12.012;2024-03-17T08:18:34;101014.66;;;-0.76;100.00
19600;BME280;9947;57.722;12.012;2024-03-17T08:23:28;101016.66;;;-0.51;100.00
19600;BME280;9947;57.722;12.012;2024-03-17T08:25:58;101055.66;;;-0.55;100.00
19600;BME280;9947;57.722;12.012;2024-03-17T08:28:26;101105.94;;;-0.47;100.00
19600;BME280;9947;57.722;12.012;2024-03-17T08:30:54;101150.13;;;-0.43;100.00
19600;BME280;9947;57.722;12.012;2024-03-17T08:33:22;101151.41;;;-0.24;100.00
19600;BME280;9947;57.722;12.012;2024-03-17T08:35:55;101210.78;;;-0.26;100.00
19600;BME280;9947;57.722;12.012;2024-03-17T08:38:22;101268.53;;;-0.35;100.00
19600;BME280;9947;57.722;12.012;2024-03-17T08:40:51;101278.09;;;-0.26;100.00
19600;BME280;9947;57.722;12.012;2024-03-17T08:43:20;101315.34;;;-0.29;100.00
19600;BME280;9947;57.722;12.012;2024-03-17T08:45:55;101349.13;;;-0.36;100.00
19600;BME280;9947;57.722;12.012;2024-03-17T08:48:25;101351.69;;;-0.31;100.00
19600;BME280;9947;57.722;12.012;2024-03-17T08:50:54;101381.06;;;-0.37;100.00
19600;BME280;9947;57.722;12.012;2024-03-17T08:53:22;101380.59;;;-0.16;100.00
19600;BME280;9947;57.722;12.012;2024-03-17T08:55:49;101392.75;;;-0.06;100.00
19600;BME280;9947;57.722;12.012;2024-03-17T08:58:17;101419.25;;;-0.03;100.00
19600;BME280;9947;57.722;12.012;2024-03-17T09:00:47;101463.69;;;-0.09;100.00
19600;BME280;9947;57.722;12.012;2024-03-17T09:03:14;101463.53;;;-0.02;100.00
19600;BME280;9947;57.722;12.012;2024-03-17T09:05:43;101484.09;;;-0.10;100.00
19600;BME280;9947;57.722;12.012;2024-03-17T09:08:15;101520.34;;;-0.07;100.00
19600;BME280;9947;57.722;12.012;2024-03-17T09:10:43;101551.22;;;0.02;100.00
19600;BME280;9947;57.722;12.012;2024-03-17T09:13:13;101566.03;;;0.13;100.00
19600;BME280;9947;57.722;12.012;2024-03-17T09:15:50;101549.09;;;0.17;100.00
19600;BME280;9947;57.722;12.012;2024-03-17T09:18:17;101573.63;;;0.32;100.00
19600;BME280;9947;57.722;12.012;2024-03-17T09:20:45;101600.81;;;0.44;100.00
19600;BME280;9947;57.722;12.012;2024-03-17T09:23:12;101622.03;;;0.47;100.00
19600;BME280;9947;57.722;12.012;2024-03-17T09:25:39;101656.78;;;0.40;100.00
19600;BME280;9947;57.722;12.012;2024-03-17T09:28:07;101650.31;;;0.08;100.00
19600;BME280;9947;57.722;12.012;2024-03-17T09:30:36;101659.72;;;0.24;100.00
19600;BME280;9947;57.722;12.012;2024-03-17T09:33:09;101642.00;;;0.25;100.00
19600;BME280;9947;57.722;12.012;2024-03-17T09:35:36;101654.22;;;0.35;100.00
19600;BME280;9947;57.722;12.012;2024-03-17T09:38:03;101703.84;;;0.36;100.00
19600;BME280;9947;57.722;12.012;2024-03-17T09:40:32;101698.44;;;0.41;100.00
19600;BME280;9947;57.722;12.012;2024-03-17T09:43:10;101681.41;;;0.49;100.00
19600;BME280;9947;57.722;12.012;2024-03-17T09:45:39;101672.25;;;0.64;100.00
19600;BME280;9947;57.722;12.012;2024-03-17T09:48:16;101707.75;;;0.63;100.00
19600;BME280;9947;57.722;12.012;2024-03-17T09:50:50;101711.31;;;0.62;100.00
19600;BME280;9947;57.722;12.012;2024-03-17T09:53:23;101690.75;;;0.70;100.00
19600;BME280;9947;57.722;12.012;2024-03-17T09:55:54;101742.38;;;0.61;100.00
19600;BME280;9947;57.722;12.012;2024-03-17T09:58:23;101761.97;;;0.57;100.00
19600;BME280;9947;57.722;12.012;2024-03-17T10:00:51;101770.88;;;0.55;100.00
19600;BME280;9947;57.722;12.012;2024-03-17T10:03:42;101789.47;;;0.56;100.00
19600;BME280;9947;57.722;12.012;2024-03-17T10:08:45;101772.34;;;0.70;100.00
19600;BME280;9947;57.722;12.012;2024-03-17T10:11:15;101762.47;;;0.76;100.00
19600;BME280;9947;57.722;12.012;2024-03-17T10:13:43;101764.38;;;0.70;100.00
19600;BME280;9947;57.722;12.012;2024-03-17T10:16:22;101765.66;;;0.93;100.00
19600;BME280;9947;57.722;12.012;2024-03-17T10:18:51;101810.06;;;0.93;100.00
19600;BME280;9947;57.722;12.012;2024-03-17T10:21:35;101832.16;;;0.97;100.00
19600;BME280;9947;57.722;12.012;2024-03-17T10:26:31;101848.44;;;1.26;100.00
19600;BME280;9947;57.722;12.012;2024-03-17T10:31:24;101948.16;;;1.13;100.00
19600;BME280;9947;57.722;12.012;2024-03-17T10:34:02;101946.25;;;1.19;100.00
19600;BME280;9947;57.722;12.012;2024-03-17T10:36:31;101976.94;;;1.40;100.00
19600;BME280;9947;57.722;12.012;2024-03-17T10:39:00;101996.25;;;1.51;100.00
19600;BME280;9947;57.722;12.012;2024-03-17T10:41:28;102036.78;;;1.21;100.00
19600;BME280;9947;57.722;12.012;2024-03-17T10:46:27;102074.81;;;1.28;100.00
19600;BME280;9947;57.722;12.012;2024-03-17T10:48:55;102092.75;;;1.18;100.00
19600;BME280;9947;57.722;12.012;2024-03-17T10:51:25;102093.41;;;1.34;100.00
19600;BME280;9947;57.722;12.012;2024-03-17T10:53:54;102111.47;;;1.15;100.00
19600;BME280;9947;57.722;12.012;2024-03-17T10:56:25;102117.69;;;1.14;100.00
19600;BME280;9947;57.722;12.012;2024-03-17T10:58:55;102102.31;;;1.30;100.00
19600;BME280;9947;57.722;12.012;2024-03-17T11:01:25;102095.13;;;1.36;100.00
19600;BME280;9947;57.722;12.012;2024-03-17T11:03:53;102086.91;;;1.48;100.00
19600;BME280;9947;57.722;12.012;2024-03-17T11:06:21;102107.66;;;1.28;100.00
19600;BME280;9947;57.722;12.012;2024-03-17T11:08:50;102104.00;;;1.37;100.00
19600;BME280;9947;57.722;12.012;2024-03-17T11:11:35;102114.59;;;1.40;100.00
19600;BME280;9947;57.722;12.012;2024-03-17T11:16:38;102114.31;;;1.55;100.00
19600;BME280;9947;57.722;12.012;2024-03-17T11:19:07;102119.06;;;1.39;100.00
19600;BME280;9947;57.722;12.012;2024-03-17T11:21:35;102129.44;;;1.54;100.00
19600;BME280;9947;57.722;12.012;2024-03-17T11:26:36;102132.03;;;1.59;100.00
19600;BME280;9947;57.722;12.012;2024-03-17T11:31:41;102131.81;;;1.71;100.00
19600;BME280;9947;57.722;12.012;2024-03-17T11:34:31;102128.47;;;1.60;100.00
19600;BME280;9947;57.722;12.012;2024-03-17T11:36:57;102127.31;;;1.75;100.00
19600;BME280;9947;57.722;12.012;2024-03-17T11:39:59;102116.59;;;1.76;100.00
19600;BME280;9947;57.722;12.012;2024-03-17T11:42:27;102109.41;;;1.83;100.00
19600;BME280;9947;57.722;12.012;2024-03-17T11:44:58;102117.16;;;1.95;100.00
19600;BME280;9947;57.722;12.012;2024-03-17T11:47:39;102127.69;;;2.01;100.00
19600;BME280;9947;57.722;12.012;2024-03-17T11:50:08;102130.34;;;2.03;100.00
19600;BME280;9947;57.722;12.012;2024-03-17T11:52:36;102124.94;;;2.06;100.00
19600;BME280;9947;57.722;12.012;2024-03-17T11:55:16;102124.19;;;1.99;100.00
19600;BME280;9947;57.722;12.012;2024-03-17T11:57:46;102124.94;;;2.06;100.00
19600;BME280;9947;57.722;12.012;2024-03-17T12:00:19;102128.13;;;2.25;100.00
19600;BME280;9947;57.722;12.012;2024-03-17T12:02:48;102127.41;;;2.16;100.00
19600;BME280;9947;57.722;12.012;2024-03-17T12:05:17;102124.75;;;2.16;100.00
19600;BME280;9947;57.722;12.012;2024-03-17T12:07:52;102113.25;;;2.13;100.00
19600;BME280;9947;57.722;12.012;2024-03-17T12:10:26;102111.53;;;2.10;100.00
19600;BME280;9947;57.722;12.012;2024-03-17T12:12:55;102112.50;;;2.05;100.00
19600;BME280;9947;57.722;12.012;2024-03-17T12:15:22;102123.94;;;2.13;100.00
19600;BME280;9947;57.722;12.012;2024-03-17T12:17:52;102113.13;;;2.19;100.00
19600;BME280;9947;57.722;12.012;2024-03-17T12:20:20;102125.31;;;2.31;100.00
19600;BME280;9947;57.722;12.012;2024-03-17T12:22:50;102115.78;;;2.19;100.00
19600;BME280;9947;57.722;12.012;2024-03-17T12:25:22;102129.88;;;2.26;100.00
19600;BME280;9947;57.722;12.012;2024-03-17T12:27:52;102124.53;;;2.26;100.00
19600;BME280;9947;57.722;12.012;2024-03-17T12:30:23;102116.72;;;2.18;100.00
19600;BME280;9947;57.722;12.012;2024-03-17T12:32:50;102106.72;;;2.28;100.00
19600;BME280;9947;57.722;12.012;2024-03-17T12:35:17;102109.28;;;2.32;100.00
19600;BME280;9947;57.722;12.012;2024-03-17T12:37:44;102102.13;;;2.36;100.00
19600;BME280;9947;57.722;12.012;2024-03-17T12:40:19;102112.13;;;2.25;100.00
19600;BME280;9947;57.722;12.012;2024-03-17T12:42:48;102102.16;;;2.33;100.00
19600;BME280;9947;57.722;12.012;2024-03-17T12:45:22;102121.66;;;2.38;100.00
19600;BME280;9947;57.722;12.012;2024-03-17T12:47:50;102117.09;;;2.43;100.00
19600;BME280;9947;57.722;12.012;2024-03-17T12:50:20;102104.66;;;2.42;100.00
19600;BME280;9947;57.722;12.012;2024-03-17T12:52:55;102109.78;;;2.51;100.00
19600;BME280;9947;57.722;12.012;2024-03-17T12:55:24;102111.38;;;2.60;100.00
19600;BME280;9947;57.722;12.012;2024-03-17T12:58:09;102107.16;;;2.50;100.00
19600;BME280;9947;57.722;12.012;2024-03-17T13:03:34;102104.25;;;2.59;100.00
19600;BME280;9947;57.722;12.012;2024-03-17T13:08:27;102095.56;;;2.51;100.00
19600;BME280;9947;57.722;12.012;2024-03-17T13:10:57;102082.94;;;2.57;100.00
19600;BME280;9947;57.722;12.012;2024-03-17T13:13:26;102083.84;;;2.56;100.00
19600;BME280;9947;57.722;12.012;2024-03-17T13:15:53;102083.75;;;2.62;100.00
19600;BME280;9947;57.722;12.012;2024-03-17T13:18:21;102081.69;;;2.33;100.00
19600;BME280;9947;57.722;12.012;2024-03-17T13:20:50;102084.09;;;2.45;100.00
19600;BME280;9947;57.722;12.012;2024-03-17T13:23:26;102085.91;;;2.45;100.00
19600;BME280;9947;57.722;12.012;2024-03-17T13:25:55;102078.44;;;2.59;100.00
19600;BME280;9947;57.722;12.012;2024-03-17T13:28:33;102078.31;;;2.67;100.00
19600;BME280;9947;57.722;12.012;2024-03-17T13:33:28;102082.44;;;2.80;100.00
19600;BME280;9947;57.722;12.012;2024-03-17T13:36:04;102085.97;;;2.81;100.00
19600;BME280;9947;57.722;12.012;2024-03-17T13:38:31;102080.81;;;2.73;100.00
19600;BME280;9947;57.722;12.012;2024-03-17T13:41:03;102081.09;;;2.62;100.00
19600;BME280;9947;57.722;12.012;2024-03-17T13:43:30;102079.88;;;2.75;100.00
19600;BME280;9947;57.722;12.012;2024-03-17T13:48:27;102077.72;;;2.53;100.00
19600;BME280;9947;57.722;12.012;2024-03-17T13:50:58;102079.16;;;2.69;100.00
19600;BME280;9947;57.722;12.012;2024-03-17T13:53:26;102081.47;;;2.83;100.00
19600;BME280;9947;57.722;12.012;2024-03-17T13:55:53;102080.63;;;2.81;99.32
19600;BME280;9947;57.722;12.012;2024-03-17T13:58:21;102079.19;;;2.67;84.47
19600;BME280;9947;57.722;12.012;2024-03-17T14:00:52;102076.34;;;2.73;80.63
19600;BME280;9947;57.722;12.012;2024-03-17T14:03:20;102076.50;;;2.67;75.86
19600;BME280;9947;57.722;12.012;2024-03-17T14:05:58;102076.09;;;2.45;82.12
19600;BME280;9947;57.722;12.012;2024-03-17T14:08:26;102076.06;;;2.47;89.14
19600;BME280;9947;57.722;12.012;2024-03-17T14:10:54;102080.56;;;2.45;94.79
19600;BME280;9947;57.722;12.012;2024-03-17T14:13:24;102089.63;;;2.38;95.13
19600;BME280;9947;57.722;12.012;2024-03-17T14:15:55;102093.16;;;2.38;94.75